Time;durP1;ratioP1;P1;durP2;ratioP2;P2;SDS_P1;SDS_P2;PMS_P1;PMS_P2;Temp;Humidity;BMP_temperature;BMP_pressure;BME280_temperature;BME280_humidity;BME280_pressure;Samples;Min_cycle;Max_cycle;Signal;HPM_P1;HPM_P2
2023/01/20 10:02:24;;;;;;;54.20;39.67;;;;;;;42.77;33.52;101138.81;6050901;22;1946125;-90
2023/01/20 10:05:01;;;;;;;52.50;39.77;;;;;;;42.75;33.26;101130.97;6135714;23;20217;-91
2023/01/20 10:07:56;;;;;;;49.67;40.77;;;;;;;42.74;33.48;101132.13;6122471;23;20757;-92
2023/01/20 10:10:51;;;;;;;48.53;41.50;;;;;;;42.83;33.35;101132.03;6112360;23;20982;-81
2023/01/20 10:14:02;;;;;;;;;;;;;;;;;;;;;
2023/01/20 10:16:47;;;;;;;59.23;39.23;;;;;;;42.81;33.68;101123.38;6121431;23;20412;-84
2023/01/20 10:19:41;;;;;;;;;;;;;;;;;;;;;
2023/01/20 10:23:12;;;;;;;48.50;32.47;;;;;;;42.84;32.88;101111.78;6124551;23;21003;-88
2023/01/20 10:29:57;;;;;;;;;;;;;;;;;;;;;
2023/01/20 10:32:31;;;;;;;;;;;;;;;;;;;;;
2023/01/20 10:35:41;;;;;;;55.30;34.03;;;;;;;43.05;32.82;101109.06;6123894;23;20781;-91
2023/01/20 10:39:11;;;;;;;;;;;;;;;;;;;;;
2023/01/20 10:56:31;;;;;;;;;;;;;;;;;;;;;
2023/01/20 10:58:56;;;;;;;42.23;29.70;;;;;;;43.06;32.97;101077.91;6119358;23;20469;-80
2023/01/20 11:01:35;;;;;;;;;;;;;;;;;;;;;
2023/01/20 11:04:03;;;;;;;50.40;29.20;;;;;;;42.95;33.47;101065.78;6123917;23;20485;-90
2023/01/20 11:06:30;;;;;;;41.23;28.70;;;;;;;42.84;33.26;101060.75;6121535;23;20514;-89
2023/01/20 11:09:47;;;;;;;43.57;28.33;;;;;;;42.91;33.33;101068.41;6122748;23;20412;-90
2023/01/20 11:12:20;;;;;;;38.63;28.20;;;;;;;43.03;33.12;101062.19;6121508;23;20468;-89
2023/01/20 11:14:49;;;;;;;39.47;25.73;;;;;;;43.04;33.43;101063.81;6121945;23;20731;-90
2023/01/20 11:17:22;;;;;;;54.90;30.00;;;;;;;43.10;33.09;101059.72;6123409;23;20902;-89
2023/01/20 11:20:22;;;;;;;;;;;;;;;;;;;;;
2023/01/20 11:23:05;;;;;;;43.20;28.53;;;;;;;43.09;33.25;101047.19;6124829;23;20453;-90
2023/01/20 11:25:31;;;;;;;33.57;27.37;;;;;;;43.16;33.35;101050.19;6123158;23;20429;-89
2023/01/20 11:28:11;;;;;;;;;;;;;;;;;;;;;
2023/01/20 11:30:40;;;;;;;39.90;24.63;;;;;;;43.18;33.34;101043.25;6123150;23;20484;-90
2023/01/20 11:33:19;;;;;;;43.67;29.17;;;;;;;43.14;33.08;101038.78;6121455;23;20418;-90
2023/01/20 11:36:36;;;;;;;32.80;27.07;;;;;;;43.14;33.47;101033.34;6121829;23;20790;-90
2023/01/20 11:39:31;;;;;;;44.83;24.70;;;;;;;43.30;33.52;101028.03;6091017;23;20378;-89
2023/01/20 11:42:26;;;;;;;42.87;24.63;;;;;;;43.22;32.78;101016.06;6121207;23;20558;-87
2023/01/20 11:45:03;;;;;;;33.77;26.30;;;;;;;43.19;32.84;101012.06;6124086;23;20358;-88
2023/01/20 11:47:59;;;;;;;40.63;25.83;;;;;;;43.17;33.02;101008.91;6120519;23;20385;-88
2023/01/20 11:50:40;;;;;;;41.90;26.63;;;;;;;43.25;33.15;101007.19;6122758;23;20389;-84
2023/01/20 11:53:18;;;;;;;37.30;25.67;;;;;;;43.30;33.09;101006.19;6118612;23;20442;-84
2023/01/20 11:55:55;;;;;;;35.63;26.50;;;;;;;43.29;32.53;100997.19;6093447;23;20458;-88
2023/01/20 11:58:27;;;;;;;33.93;25.27;;;;;;;43.32;32.74;100990.25;6092539;23;20481;-90
2023/01/20 12:01:08;;;;;;;39.93;25.17;;;;;;;43.39;32.79;100985.81;6093301;23;20435;-81
2023/01/20 12:04:13;;;;;;;34.93;24.20;;;;;;;43.39;32.56;100987.75;6091763;23;20414;-85
2023/01/20 12:07:13;;;;;;;27.07;21.50;;;;;;;43.39;32.68;100974.91;6089864;23;20864;-83
2023/01/20 12:09:44;;;;;;;32.60;23.90;;;;;;;43.40;32.84;100970.22;6092540;23;20721;-87
2023/01/20 12:12:22;;;;;;;34.53;22.90;;;;;;;43.37;32.73;100970.91;6093974;23;20391;-87
2023/01/20 12:15:04;;;;;;;45.03;23.50;;;;;;;43.37;32.71;100971.69;6094293;23;20442;-87
2023/01/20 12:17:47;;;;;;;39.57;27.47;;;;;;;43.42;32.84;100962.50;6094436;23;20410;-88
2023/01/20 12:20:25;;;;;;;33.93;23.57;;;;;;;43.43;33.10;100959.44;6092881;23;20842;-80
2023/01/20 12:23:09;;;;;;;31.63;22.47;;;;;;;43.33;33.23;100951.66;6093131;23;20894;-82
2023/01/20 12:25:47;;;;;;;42.37;23.20;;;;;;;43.35;33.21;100943.94;6093591;23;20397;-86
2023/01/20 12:28:16;;;;;;;41.23;24.23;;;;;;;43.41;33.13;100947.28;6094695;23;20878;-84
2023/01/20 12:30:54;;;;;;;37.13;25.80;;;;;;;43.43;32.60;100937.59;6095037;23;20411;-76
2023/01/20 12:33:29;;;;;;;34.10;26.07;;;;;;;43.40;33.04;100934.72;6095614;23;20484;-82
2023/01/20 12:36:10;;;;;;;42.37;25.87;;;;;;;43.47;32.87;100934.19;6095577;23;20429;-86
2023/01/20 12:39:11;;;;;;;37.70;22.67;;;;;;;43.48;32.52;100925.63;6096757;23;20843;-86
2023/01/20 12:42:09;;;;;;;44.73;25.53;;;;;;;43.52;32.74;100925.72;6094532;23;20801;-84
2023/01/20 12:44:53;;;;;;;44.93;25.10;;;;;;;43.61;32.49;100920.94;6095908;23;20391;-87
2023/01/20 12:47:42;;;;;;;40.33;26.30;;;;;;;43.55;33.09;100914.91;6095292;23;20426;-79
2023/01/20 12:50:28;;;;;;;46.40;26.23;;;;;;;43.58;32.67;100913.44;6097045;23;20363;-88
2023/01/20 12:53:03;;;;;;;40.00;24.33;;;;;;;43.62;32.82;100901.47;6097162;23;20398;-85
2023/01/20 12:55:32;;;;;;;27.00;21.37;;;;;;;43.66;32.95;100904.31;6094974;23;20473;-83
2023/01/20 12:58:14;;;;;;;36.70;21.73;;;;;;;43.71;32.44;100906.81;6094980;23;20450;-88
2023/01/20 13:00:49;;;;;;;44.60;23.07;;;;;;;43.43;32.61;100898.56;6094681;23;20446;-88
2023/01/20 13:03:36;;;;;;;34.40;22.03;;;;;;;43.65;32.34;100881.66;6092800;23;20445;-89
2023/01/20 13:06:36;;;;;;;29.30;21.77;;;;;;;43.64;32.36;100887.47;6090783;23;20411;-80
2023/01/20 13:09:08;;;;;;;31.00;20.13;;;;;;;43.74;31.96;100881.50;6094806;23;20363;-80
2023/01/20 13:11:55;;;;;;;29.97;21.57;;;;;;;43.71;32.18;100872.09;6092583;23;20437;-80
2023/01/20 13:14:25;;;;;;;33.80;23.33;;;;;;;43.77;32.18;100872.63;6094322;23;20398;-79
2023/01/20 13:17:10;;;;;;;34.33;23.73;;;;;;;43.81;32.46;100864.56;6092935;23;21110;-85
2023/01/20 13:19:40;;;;;;;37.53;24.67;;;;;;;43.87;32.22;100866.69;6094557;23;20453;-84
2023/01/20 13:22:18;;;;;;;32.83;23.50;;;;;;;43.89;32.00;100858.13;6094866;23;20380;-84
2023/01/20 13:24:47;;;;;;;32.53;20.33;;;;;;;43.95;32.20;100860.31;6094600;23;20770;-85
2023/01/20 13:27:29;;;;;;;35.97;23.70;;;;;;;44.00;31.37;100844.78;6094902;23;20856;-85
2023/01/20 13:29:57;;;;;;;25.47;23.67;;;;;;;43.97;32.16;100838.88;6094360;23;20383;-85
2023/01/20 13:32:49;;;;;;;33.90;22.33;;;;;;;43.99;32.15;100835.78;6096749;23;20367;-83
2023/01/20 13:35:24;;;;;;;40.47;27.10;;;;;;;44.10;31.59;100827.88;6088017;23;20426;-81
2023/01/20 13:37:51;;;;;;;39.00;22.53;;;;;;;44.13;31.68;100825.22;6094798;23;20387;-81
2023/01/20 13:40:35;;;;;;;42.03;26.07;;;;;;;44.16;31.45;100827.25;6094480;23;20430;-82
2023/01/20 13:43:21;;;;;;;27.93;21.60;;;;;;;44.21;31.16;100827.03;6093166;23;20387;-80
2023/01/20 13:45:48;;;;;;;32.73;21.43;;;;;;;44.19;31.59;100823.06;6074493;23;20737;-77
2023/01/20 13:48:14;;;;;;;34.47;22.40;;;;;;;44.14;31.54;100826.81;6093223;23;20848;-84
2023/01/20 13:50:41;;;;;;;25.60;22.63;;;;;;;44.23;31.22;100816.53;6094360;23;20411;-82
2023/01/20 13:53:19;;;;;;;37.70;23.53;;;;;;;44.35;31.15;100812.13;6094514;23;20196;-85
2023/01/20 13:55:48;;;;;;;34.03;22.57;;;;;;;44.26;31.38;100812.31;6093484;23;20938;-86
2023/01/20 13:58:24;;;;;;;45.37;23.83;;;;;;;44.35;31.34;100793.00;6094199;23;20425;-85
2023/01/20 14:01:00;;;;;;;39.43;23.10;;;;;;;44.35;30.91;100796.53;6096014;23;20438;-85
2023/01/20 14:03:31;;;;;;;30.43;23.10;;;;;;;44.40;31.11;100790.78;6094542;23;20398;-87
2023/01/20 14:05:58;;;;;;;30.03;20.50;;;;;;;44.48;31.23;100786.28;6092924;23;20742;-82
2023/01/20 14:08:27;;;;;;;42.63;23.00;;;;;;;44.35;30.95;100782.06;6092529;23;20398;-85
2023/01/20 14:11:23;;;;;;;35.43;23.10;;;;;;;44.36;31.34;100781.69;6095750;23;20770;-86
2023/01/20 14:13:57;;;;;;;33.30;23.80;;;;;;;44.33;31.57;100776.16;6093353;23;20398;-87
2023/01/20 14:16:32;;;;;;;38.53;22.27;;;;;;;44.39;31.06;100778.28;6094298;23;20775;-85
2023/01/20 14:19:01;;;;;;;47.50;26.13;;;;;;;44.50;31.30;100768.34;6094028;23;20386;-81
2023/01/20 14:21:30;;;;;;;36.77;23.30;;;;;;;44.49;31.12;100772.25;6094027;23;20425;-85
2023/01/20 14:23:56;;;;;;;39.00;22.43;;;;;;;44.54;31.37;100767.66;6093889;23;20470;-86
2023/01/20 14:26:27;;;;;;;42.77;22.70;;;;;;;44.52;31.14;100762.56;6093995;23;20481;-78
2023/01/20 14:28:56;;;;;;;36.30;25.13;;;;;;;44.73;31.24;100767.75;6094364;23;20374;-81
2023/01/20 14:31:39;;;;;;;36.83;25.30;;;;;;;44.75;30.51;100755.31;6094209;23;20446;-86
2023/01/20 14:34:31;;;;;;;37.80;23.23;;;;;;;44.83;30.92;100745.31;6093006;23;20390;-84
2023/01/20 14:37:01;;;;;;;24.67;19.30;;;;;;;44.95;30.25;100745.19;6094209;23;20395;-87
2023/01/20 14:39:29;;;;;;;28.77;20.23;;;;;;;44.99;30.72;100746.06;6094141;23;20497;-86
2023/01/20 14:42:00;;;;;;;33.00;22.20;;;;;;;45.06;30.75;100745.44;6094230;23;20473;-85
2023/01/20 14:44:33;;;;;;;30.07;19.40;;;;;;;45.03;30.87;100740.66;6094519;23;20420;-85
2023/01/20 14:47:03;;;;;;;25.40;19.77;;;;;;;45.13;30.23;100733.84;6094303;23;20383;-85
2023/01/20 14:49:35;;;;;;;40.10;22.73;;;;;;;45.27;30.05;100742.34;6095000;23;20462;-82
2023/01/20 14:52:03;;;;;;;36.57;24.77;;;;;;;45.17;30.50;100734.69;6094114;23;20445;-82
2023/01/20 14:54:44;;;;;;;34.03;19.97;;;;;;;45.17;30.61;100737.44;6093832;23;20472;-82
2023/01/20 14:57:30;;;;;;;34.50;22.13;;;;;;;45.08;30.85;100731.38;6093292;23;20403;-83
2023/01/20 15:00:13;;;;;;;31.50;20.60;;;;;;;45.15;30.85;100735.06;6093480;23;20954;-84
2023/01/20 15:02:44;;;;;;;32.87;18.83;;;;;;;45.19;30.82;100733.19;6093246;23;20438;-84
2023/01/20 15:05:21;;;;;;;36.30;22.20;;;;;;;45.20;30.50;100733.97;6093554;23;20379;-84
2023/01/20 15:07:47;;;;;;;32.90;24.93;;;;;;;45.29;30.80;100729.84;6093640;23;20489;-84
2023/01/20 15:10:17;;;;;;;41.23;23.27;;;;;;;45.41;30.56;100725.41;6093682;23;20461;-84
2023/01/20 15:12:45;;;;;;;37.90;26.70;;;;;;;45.43;30.02;100732.13;6093751;23;20411;-80
2023/01/20 15:15:14;;;;;;;40.20;26.40;;;;;;;45.46;30.36;100731.41;6094032;23;20523;-84
2023/01/20 15:18:16;;;;;;;42.10;23.97;;;;;;;45.56;30.04;100735.50;6093830;23;20418;-84
2023/01/20 15:20:53;;;;;;;36.50;25.47;;;;;;;45.50;29.75;100735.00;6093677;23;20442;-84
2023/01/20 15:23:37;;;;;;;30.17;21.07;;;;;;;45.47;29.89;100730.22;6094007;23;20471;-86
2023/01/20 15:26:08;;;;;;;32.33;23.33;;;;;;;45.61;29.84;100728.91;6088108;23;20789;-80
2023/01/20 15:28:41;;;;;;;40.97;26.10;;;;;;;45.59;30.08;100733.97;6091611;23;20910;-84
2023/01/20 15:31:12;;;;;;;42.20;25.97;;;;;;;45.80;29.49;100729.72;6094266;23;20394;-84
2023/01/20 15:33:39;;;;;;;42.10;25.50;;;;;;;45.89;29.65;100732.19;6093723;23;20403;-84
2023/01/20 15:36:26;;;;;;;43.00;22.77;;;;;;;45.93;29.76;100732.28;6094261;23;20387;-80
2023/01/20 15:38:52;;;;;;;33.23;22.70;;;;;;;46.00;29.47;100721.41;6094374;23;20915;-84
2023/01/20 15:41:19;;;;;;;45.43;26.30;;;;;;;46.02;29.27;100724.56;6093408;23;20430;-87
2023/01/20 15:43:45;;;;;;;43.60;24.97;;;;;;;45.99;29.38;100717.88;6092339;23;20390;-84
2023/01/20 15:46:12;;;;;;;29.37;22.70;;;;;;;46.16;29.37;100718.56;6093701;23;20398;-84
2023/01/20 15:48:39;;;;;;;34.30;24.80;;;;;;;46.19;28.73;100724.09;6094122;23;20406;-84
2023/01/20 15:51:06;;;;;;;35.70;23.10;;;;;;;46.24;28.45;100720.28;6094088;23;20378;-84
2023/01/20 15:53:33;;;;;;;29.23;21.93;;;;;;;46.20;28.45;100727.63;6093928;23;20387;-85
2023/01/20 15:56:00;;;;;;;34.53;25.70;;;;;;;46.24;28.10;100725.75;6093853;23;20446;-84
2023/01/20 15:58:29;;;;;;;39.50;25.90;;;;;;;46.26;28.34;100723.44;6092826;23;20418;-85
2023/01/20 16:00:56;;;;;;;40.83;24.90;;;;;;;46.20;28.99;100725.69;6094024;23;20476;-84
2023/01/20 16:03:23;;;;;;;35.93;23.47;;;;;;;46.14;28.62;100727.16;6097676;23;20486;-86
2023/01/20 16:05:51;;;;;;;40.23;26.50;;;;;;;46.17;28.89;100726.44;6096513;23;20379;-87
2023/01/20 16:08:22;;;;;;;38.20;24.70;;;;;;;46.18;28.71;100722.53;6096118;23;20386;-87
2023/01/20 16:10:48;;;;;;;32.23;26.53;;;;;;;46.13;29.29;100724.78;6095561;23;20434;-87
2023/01/20 16:13:14;;;;;;;50.30;25.70;;;;;;;45.99;29.31;100726.13;6096538;23;20443;-87
2023/01/20 16:15:42;;;;;;;39.50;24.60;;;;;;;45.91;29.18;100732.63;6095690;23;20390;-85
2023/01/20 16:18:16;;;;;;;36.13;27.33;;;;;;;45.80;29.75;100731.66;6095952;23;20391;-82
2023/01/20 16:20:44;;;;;;;37.10;23.00;;;;;;;45.73;30.14;100734.25;6093380;23;20390;-81
2023/01/20 16:23:12;;;;;;;37.47;20.00;;;;;;;45.70;29.68;100729.47;6093423;23;20382;-87
2023/01/20 16:25:39;;;;;;;31.27;21.67;;;;;;;45.63;29.62;100726.63;6095253;23;20426;-81
2023/01/20 16:28:25;;;;;;;38.27;21.83;;;;;;;45.96;29.31;100731.53;6094620;23;20489;-81
2023/01/20 16:30:53;;;;;;;41.47;22.87;;;;;;;46.36;28.48;100741.22;6094902;23;20840;-84
2023/01/20 16:33:24;;;;;;;36.40;21.70;;;;;;;46.54;27.83;100736.81;6095080;23;20442;-85
2023/01/20 16:35:53;;;;;;;39.80;22.30;;;;;;;46.70;27.38;100731.94;6094734;23;20410;-84
2023/01/20 16:38:24;;;;;;;40.33;22.03;;;;;;;46.66;27.81;100741.31;6094740;23;20387;-84
2023/01/20 16:40:54;;;;;;;38.70;21.57;;;;;;;46.56;27.79;100742.72;6095645;23;20383;-84
2023/01/20 16:43:21;;;;;;;29.27;22.10;;;;;;;46.43;28.36;100742.13;6095600;23;20390;-85
2023/01/20 16:45:54;;;;;;;33.53;20.03;;;;;;;46.29;28.08;100744.66;6095501;23;20386;-85
2023/01/20 16:48:21;;;;;;;34.60;22.90;;;;;;;45.94;28.76;100748.34;6095117;23;20922;-85
2023/01/20 16:50:48;;;;;;;31.70;19.20;;;;;;;45.65;29.21;100755.22;6095288;23;20435;-85
2023/01/20 16:53:15;;;;;;;24.83;18.47;;;;;;;45.48;30.10;100744.72;6093937;23;20383;-83
2023/01/20 16:55:46;;;;;;;35.87;19.30;;;;;;;45.29;30.03;100748.25;6094426;23;20462;-84
2023/01/20 16:58:13;;;;;;;43.90;21.60;;;;;;;45.13;30.02;100750.28;6095494;23;20448;-84
2023/01/20 17:00:39;;;;;;;30.73;21.93;;;;;;;45.02;30.44;100759.03;6096874;23;20398;-84
2023/01/20 17:03:06;;;;;;;28.13;21.33;;;;;;;44.92;30.40;100756.03;6095423;23;20442;-84
2023/01/20 17:05:32;;;;;;;29.90;19.33;;;;;;;44.86;31.03;100757.47;6095049;23;20382;-87
2023/01/20 17:07:59;;;;;;;32.53;22.30;;;;;;;44.74;31.37;100761.09;6096023;23;20855;-78
2023/01/20 17:10:28;;;;;;;33.33;22.73;;;;;;;44.63;31.31;100763.63;6095131;23;20435;-85
2023/01/20 17:12:55;;;;;;;38.37;20.23;;;;;;;44.53;31.27;100763.34;6094432;23;20390;-83
2023/01/20 17:15:22;;;;;;;39.67;20.30;;;;;;;44.47;31.26;100765.53;6096791;23;20712;-87
2023/01/20 17:17:54;;;;;;;30.30;20.47;;;;;;;44.38;31.37;100770.38;6095160;23;20389;-86
2023/01/20 17:20:21;;;;;;;38.13;20.50;;;;;;;44.25;31.84;100766.97;6094857;23;20755;-82
2023/01/20 17:22:46;;;;;;;33.70;21.90;;;;;;;44.19;32.00;100769.16;6093541;23;20370;-81
2023/01/20 17:25:13;;;;;;;28.23;19.80;;;;;;;44.13;31.69;100767.00;6092365;23;20415;-85
2023/01/20 17:27:39;;;;;;;30.97;21.07;;;;;;;44.04;31.92;100771.88;6095023;23;20833;-84
2023/01/20 17:30:07;;;;;;;33.70;22.30;;;;;;;44.05;32.41;100778.91;6096620;23;20953;-84
2023/01/20 17:32:34;;;;;;;35.40;21.73;;;;;;;44.01;32.40;100788.97;6094591;23;20390;-80
2023/01/20 17:35:00;;;;;;;29.13;19.50;;;;;;;43.94;32.67;100795.81;6094822;23;20414;-85
2023/01/20 17:37:26;;;;;;;37.80;24.37;;;;;;;43.83;32.76;100793.94;6094789;23;20410;-85
2023/01/20 17:39:52;;;;;;;40.00;21.20;;;;;;;43.79;32.94;100795.81;6094367;23;20863;-81
2023/01/20 17:42:18;;;;;;;44.63;21.70;;;;;;;43.75;32.83;100803.88;6094108;23;20489;-85
2023/01/20 17:44:44;;;;;;;26.83;19.23;;;;;;;43.67;32.64;100796.63;6094960;23;20442;-87
2023/01/20 17:47:11;;;;;;;42.23;21.83;;;;;;;43.66;32.76;100797.78;6094867;23;20450;-85
2023/01/20 17:49:37;;;;;;;38.87;20.07;;;;;;;43.50;32.85;100797.69;6094967;23;20430;-85
2023/01/20 17:52:04;;;;;;;40.33;20.47;;;;;;;43.57;32.97;100802.56;6094753;23;20383;-82
2023/01/20 17:54:30;;;;;;;38.10;23.30;;;;;;;43.52;33.04;100800.88;6092755;23;20450;-85
2023/01/20 17:56:56;;;;;;;34.63;23.37;;;;;;;43.50;33.50;100807.84;6094967;23;20434;-84
2023/01/20 17:59:25;;;;;;;30.00;20.37;;;;;;;43.45;33.21;100817.06;6094787;23;20390;-85
2023/01/20 18:01:51;;;;;;;31.27;22.63;;;;;;;43.41;33.42;100811.50;6096264;23;20478;-84
2023/01/20 18:04:18;;;;;;;34.33;21.47;;;;;;;43.43;33.05;100808.44;6094352;23;20387;-85
2023/01/20 18:06:44;;;;;;;41.53;22.23;;;;;;;43.34;33.93;100814.00;6093329;23;20395;-82
2023/01/20 18:09:14;;;;;;;29.27;22.83;;;;;;;43.33;32.95;100831.50;6091701;23;20469;-80
2023/01/20 18:11:42;;;;;;;26.70;21.30;;;;;;;43.34;33.11;100826.84;6095490;23;20442;-85
2023/01/20 18:14:08;;;;;;;31.10;21.30;;;;;;;43.28;33.47;100829.03;6094691;23;20391;-87
2023/01/20 18:16:37;;;;;;;36.80;22.80;;;;;;;43.28;33.25;100826.31;6094356;23;20423;-87
2023/01/20 18:19:04;;;;;;;34.93;24.53;;;;;;;43.25;33.67;100826.19;6093806;23;20879;-87
2023/01/20 18:21:32;;;;;;;36.23;23.17;;;;;;;43.22;33.48;100837.78;6094098;23;20760;-87
2023/01/20 18:23:59;;;;;;;31.80;20.40;;;;;;;43.21;33.60;100837.00;6093314;23;20387;-85
2023/01/20 18:26:30;;;;;;;30.80;23.00;;;;;;;43.24;33.32;100847.25;6093502;23;20394;-85
2023/01/20 18:28:58;;;;;;;30.37;21.83;;;;;;;43.22;33.75;100851.44;6070747;23;20391;-86
2023/01/20 18:31:25;;;;;;;32.63;21.23;;;;;;;43.26;33.74;100857.81;6093765;23;20521;-86
2023/01/20 18:33:54;;;;;;;30.47;20.57;;;;;;;43.24;33.80;100854.63;6093080;23;20896;-85
2023/01/20 18:36:25;;;;;;;36.07;21.40;;;;;;;43.24;34.10;100860.09;6092442;23;20442;-82
2023/01/20 18:38:53;;;;;;;33.57;21.33;;;;;;;43.17;33.96;100868.88;6092705;23;20919;-86
2023/01/20 18:41:20;;;;;;;43.37;26.47;;;;;;;43.17;34.34;100877.06;6092817;23;20387;-86
2023/01/20 18:43:47;;;;;;;33.13;20.33;;;;;;;43.18;34.03;100884.91;6093088;23;20852;-87
2023/01/20 18:46:13;;;;;;;41.10;22.97;;;;;;;43.18;34.22;100895.03;6092781;23;20773;-83
2023/01/20 18:48:47;;;;;;;35.30;21.17;;;;;;;43.09;34.61;100891.59;6093315;23;20387;-85
2023/01/20 18:51:15;;;;;;;33.43;20.30;;;;;;;43.10;34.61;100890.50;6092727;23;20513;-84
2023/01/20 18:53:43;;;;;;;29.33;18.97;;;;;;;43.12;33.97;100910.84;6092800;23;20398;-75
2023/01/20 18:56:11;;;;;;;37.43;22.63;;;;;;;43.12;33.79;100912.78;6092741;23;20406;-80
2023/01/20 18:58:40;;;;;;;32.57;21.23;;;;;;;43.07;33.87;100915.72;6092652;23;20470;-85
2023/01/20 19:01:09;;;;;;;34.97;23.77;;;;;;;43.06;33.79;100919.59;6092849;23;20473;-86
2023/01/20 19:03:36;;;;;;;28.80;19.23;;;;;;;43.04;33.63;100928.13;6092853;23;20399;-82
2023/01/20 19:06:06;;;;;;;29.63;19.90;;;;;;;43.06;33.92;100931.31;6094590;23;20371;-86
2023/01/20 19:08:33;;;;;;;32.07;21.83;;;;;;;43.08;33.88;100934.47;6093253;23;20958;-84
2023/01/20 19:11:05;;;;;;;30.97;20.13;;;;;;;43.08;33.81;100933.69;6093571;23;20435;-85
2023/01/20 19:13:31;;;;;;;35.93;22.70;;;;;;;43.09;34.14;100946.19;6094304;23;20401;-85
2023/01/20 19:15:59;;;;;;;32.93;22.93;;;;;;;43.08;34.30;100945.41;6094254;23;20391;-86
2023/01/20 19:18:25;;;;;;;35.03;21.30;;;;;;;43.09;33.75;100951.66;6094115;23;20883;-85
2023/01/20 19:20:52;;;;;;;41.03;21.97;;;;;;;43.08;33.77;100952.78;6094098;23;20862;-84
2023/01/20 19:23:18;;;;;;;37.40;20.80;;;;;;;43.09;34.11;100948.94;6093443;23;20395;-86
2023/01/20 19:25:44;;;;;;;34.83;20.67;;;;;;;43.09;33.97;100965.31;6093569;23;20399;-81
2023/01/20 19:28:11;;;;;;;35.33;18.47;;;;;;;43.06;34.24;100961.34;6093781;23;20737;-85
2023/01/20 19:30:37;;;;;;;36.33;21.03;;;;;;;43.01;33.96;100966.22;6094174;23;20430;-85
2023/01/20 19:33:04;;;;;;;28.03;20.47;;;;;;;43.03;34.47;100970.22;6093938;23;20486;-81
2023/01/20 19:35:32;;;;;;;35.27;21.70;;;;;;;43.02;34.19;100973.25;6094672;23;20473;-82
2023/01/20 19:37:58;;;;;;;34.50;23.17;;;;;;;43.06;33.86;100979.66;6096080;23;20738;-81
2023/01/20 19:40:24;;;;;;;35.23;21.63;;;;;;;43.03;34.02;100980.31;6097890;23;20389;-82
2023/01/20 19:42:51;;;;;;;29.20;18.80;;;;;;;43.03;34.10;100986.59;6096571;23;20391;-82
2023/01/20 19:45:17;;;;;;;36.30;20.70;;;;;;;43.05;34.27;100988.97;6096356;23;20414;-80
2023/01/20 19:47:43;;;;;;;28.70;19.47;;;;;;;43.00;34.04;100989.19;6095424;23;20411;-81
2023/01/20 19:50:10;;;;;;;34.30;19.67;;;;;;;42.98;33.60;100995.00;6098054;23;20407;-81
2023/01/20 19:52:36;;;;;;;27.97;21.10;;;;;;;42.99;34.21;100998.53;6095964;23;20391;-85
2023/01/20 19:55:02;;;;;;;39.53;21.20;;;;;;;42.96;34.34;100996.41;6095215;23;20506;-85
2023/01/20 19:57:28;;;;;;;31.77;20.57;;;;;;;42.94;34.34;101002.22;6095787;23;20464;-85
2023/01/20 19:59:55;;;;;;;41.10;23.10;;;;;;;42.81;34.77;100998.66;6071936;23;20379;-85
2023/01/20 20:02:21;;;;;;;26.30;22.10;;;;;;;42.91;34.62;101009.16;6097863;23;20403;-86
2023/01/20 20:04:46;;;;;;;33.00;22.17;;;;;;;42.79;34.66;101009.13;6095884;23;20462;-85
2023/01/20 20:07:12;;;;;;;34.37;21.00;;;;;;;42.85;34.91;101002.34;6096188;23;20391;-85
2023/01/20 20:09:38;;;;;;;43.33;26.73;;;;;;;42.91;34.92;101013.84;6095147;23;20839;-87
2023/01/20 20:12:06;;;;;;;34.53;20.07;;;;;;;42.86;34.86;101012.09;6095087;23;20391;-79
2023/01/20 20:14:33;;;;;;;46.47;21.70;;;;;;;42.90;34.97;101018.47;6095921;23;20151;-79
2023/01/20 20:16:59;;;;;;;33.83;19.77;;;;;;;42.89;34.82;101019.59;6097444;23;20358;-85
2023/01/20 20:19:25;;;;;;;30.73;19.57;;;;;;;42.79;35.19;101030.97;6095967;23;20391;-82
2023/01/20 20:21:56;;;;;;;29.80;22.00;;;;;;;42.83;35.13;101031.06;6095920;23;20394;-81
2023/01/20 20:24:22;;;;;;;29.87;20.40;;;;;;;42.86;35.14;101025.75;6095815;23;20386;-81
2023/01/20 20:26:49;;;;;;;34.33;19.10;;;;;;;42.84;35.19;101027.19;6095188;23;20481;-82
2023/01/20 20:29:17;;;;;;;37.50;23.53;;;;;;;42.81;35.32;101038.81;6095667;23;20410;-82
2023/01/20 20:31:43;;;;;;;34.73;20.07;;;;;;;42.80;35.26;101040.75;6095905;23;20410;-85
2023/01/20 20:34:14;;;;;;;40.20;21.60;;;;;;;42.83;35.34;101040.06;6095532;23;20397;-85
2023/01/20 20:36:39;;;;;;;36.03;23.33;;;;;;;42.84;34.86;101052.56;6095400;23;20406;-81
2023/01/20 20:39:06;;;;;;;32.67;21.40;;;;;;;42.92;35.03;101048.16;6095638;23;20391;-78
2023/01/20 20:41:34;;;;;;;37.70;20.20;;;;;;;42.95;34.94;101043.94;6095562;23;20399;-86
2023/01/20 20:44:01;;;;;;;30.67;22.33;;;;;;;42.89;34.91;101048.81;6095742;23;20388;-85
2023/01/20 20:46:27;;;;;;;33.43;20.00;;;;;;;42.85;35.13;101058.84;6095686;23;20382;-80
2023/01/20 20:48:58;;;;;;;27.93;21.20;;;;;;;42.84;35.24;101057.22;6095316;23;20380;-84
2023/01/20 20:51:25;;;;;;;34.13;19.97;;;;;;;42.88;35.12;101063.59;6095144;23;20431;-87
2023/01/20 20:53:55;;;;;;;25.00;19.23;;;;;;;42.88;35.21;101058.16;6095678;23;20379;-84
2023/01/20 20:56:26;;;;;;;34.17;20.73;;;;;;;42.84;35.17;101059.94;6092087;23;20442;-80
2023/01/20 20:58:53;;;;;;;42.97;22.90;;;;;;;42.81;35.09;101061.44;6094462;23;20363;-77
2023/01/20 21:01:19;;;;;;;29.70;19.70;;;;;;;42.81;35.26;101061.44;6093935;23;20899;-78
2023/01/20 21:03:46;;;;;;;29.90;22.30;;;;;;;42.79;35.22;101066.44;6093605;23;20379;-81
2023/01/20 21:06:13;;;;;;;29.33;20.37;;;;;;;42.71;34.90;101055.59;6093206;23;20394;-76
2023/01/20 21:08:40;;;;;;;31.10;21.30;;;;;;;42.68;34.54;101057.06;6093422;23;20383;-78
2023/01/20 21:11:09;;;;;;;33.37;19.37;;;;;;;42.68;34.86;101069.91;6093624;23;20435;-77
2023/01/20 21:13:35;;;;;;;45.90;24.60;;;;;;;42.61;35.01;101065.78;6093735;23;20398;-77
2023/01/20 21:16:13;;;;;;;27.73;22.57;;;;;;;42.73;34.91;101066.97;6093641;23;20391;-79
2023/01/20 21:18:40;;;;;;;31.70;20.57;;;;;;;42.76;34.73;101066.28;6093298;23;20474;-77
2023/01/20 21:21:10;;;;;;;36.60;21.63;;;;;;;42.75;34.68;101062.78;6093763;23;20374;-76
2023/01/20 21:23:36;;;;;;;45.33;24.03;;;;;;;42.77;34.78;101063.22;6093100;23;20402;-78
2023/01/20 21:26:05;;;;;;;32.33;22.93;;;;;;;42.78;34.91;101064.03;6095543;23;20375;-78
2023/01/20 21:28:35;;;;;;;49.87;22.43;;;;;;;42.80;34.87;101061.78;6096360;23;20454;-79
2023/01/20 21:31:09;;;;;;;41.27;23.87;;;;;;;42.79;34.99;101066.44;6094454;23;20430;-77
2023/01/20 21:33:40;;;;;;;43.53;24.90;;;;;;;42.74;34.69;101063.13;6070806;23;20848;-79
2023/01/20 21:36:07;;;;;;;47.17;20.90;;;;;;;42.75;34.89;101062.78;6094507;23;20910;-79
2023/01/20 21:38:36;;;;;;;40.93;23.90;;;;;;;42.75;35.05;101062.78;6094397;23;20437;-80
2023/01/20 21:41:08;;;;;;;44.30;24.90;;;;;;;42.64;35.05;101067.03;6094548;23;20380;-80
2023/01/20 21:46:23;;;;;;;41.87;20.80;;;;;;;42.74;35.30;101072.09;6094300;23;21162;-76
2023/01/20 21:54:18;;;;;;;38.13;21.70;;;;;;;42.69;34.96;101057.84;6095873;23;20712;-78
2023/01/20 21:56:44;;;;;;;39.93;22.23;;;;;;;42.64;35.20;101054.19;6070103;23;20393;-76
2023/01/20 21:59:10;;;;;;;38.20;22.03;;;;;;;42.59;35.31;101050.88;6070410;23;20391;-77
2023/01/20 22:01:37;;;;;;;36.90;22.43;;;;;;;42.57;35.35;101050.38;6045880;23;20407;-81
2023/01/20 22:04:03;;;;;;;31.73;20.20;;;;;;;42.62;35.29;101055.66;6070669;23;20783;-82
2023/01/20 22:06:29;;;;;;;42.37;21.80;;;;;;;42.60;35.49;101057.91;6070491;23;20390;-82
2023/01/20 22:08:57;;;;;;;36.40;22.90;;;;;;;42.56;35.37;101055.03;6069829;23;20891;-81
2023/01/20 22:11:24;;;;;;;32.40;20.70;;;;;;;42.62;35.25;101055.66;6070741;23;20954;-84
2023/01/20 22:13:56;;;;;;;32.37;22.53;;;;;;;42.60;35.13;101044.28;6069803;23;20387;-82
2023/01/20 22:16:23;;;;;;;34.93;21.07;;;;;;;42.63;35.59;101049.09;6068485;23;20391;-82